Time;durP1;ratioP1;P1;durP2;ratioP2;P2;SDS_P1;SDS_P2;PMS_P1;PMS_P2;Temp;Humidity;BMP_temperature;BMP_pressure;BME280_temperature;BME280_humidity;BME280_pressure;Samples;Min_cycle;Max_cycle;Signal;HPM_P1;HPM_P2
2022/09/13 00:02:12;;;;;;;11.30;8.27;;;14.70;99.90;;;;;;5039205;28;20900;-76
2022/09/13 00:04:38;;;;;;;9.70;8.67;;;14.70;99.90;;;;;;5041111;28;20499;-76
2022/09/13 00:07:05;;;;;;;9.40;8.30;;;14.60;99.90;;;;;;5039468;28;20458;-76
2022/09/13 00:09:33;;;;;;;10.60;8.60;;;14.60;99.90;;;;;;5042356;28;20508;-74
2022/09/13 00:12:00;;;;;;;12.73;8.70;;;14.60;99.90;;;;;;5038842;28;20489;-74
2022/09/13 00:14:27;;;;;;;11.60;8.50;;;14.60;99.90;;;;;;5049465;28;20535;-74
2022/09/13 00:16:53;;;;;;;16.23;9.23;;;14.50;99.90;;;;;;5043395;28;20487;-74
2022/09/13 00:19:20;;;;;;;10.90;8.70;;;14.50;99.90;;;;;;5036781;28;20512;-74
2022/09/13 00:21:47;;;;;;;12.07;9.30;;;14.50;99.90;;;;;;5047852;28;20446;-74
2022/09/13 00:24:14;;;;;;;17.00;10.13;;;14.50;99.90;;;;;;5052220;28;20475;-74
2022/09/13 00:26:41;;;;;;;11.97;9.27;;;14.50;99.90;;;;;;5039541;28;21010;-74
2022/09/13 00:29:08;;;;;;;15.70;9.57;;;14.50;99.90;;;;;;5042060;28;20461;-74
2022/09/13 00:31:35;;;;;;;13.43;9.50;;;14.40;99.90;;;;;;5046577;28;20485;-74
2022/09/13 00:34:01;;;;;;;13.93;8.97;;;14.40;99.90;;;;;;5044608;28;20470;-74
2022/09/13 00:36:29;;;;;;;13.90;9.30;;;14.40;99.90;;;;;;5046735;28;20997;-74
2022/09/13 00:38:55;;;;;;;12.07;9.17;;;14.40;99.90;;;;;;5043110;28;20504;-74
2022/09/13 00:41:23;;;;;;;17.37;9.33;;;14.40;99.90;;;;;;5041694;28;20446;-74
2022/09/13 00:43:55;;;;;;;15.23;9.90;;;14.40;99.90;;;;;;5040382;28;20528;-74
2022/09/13 00:46:29;;;;;;;11.77;9.27;;;14.40;99.90;;;;;;5035740;28;20959;-74
2022/09/13 00:49:01;;;;;;;16.43;9.67;;;14.30;99.90;;;;;;5039655;28;20512;-74
2022/09/13 00:51:28;;;;;;;13.00;9.00;;;14.30;99.90;;;;;;5041302;28;20458;-74
2022/09/13 00:53:58;;;;;;;12.37;9.07;;;14.30;99.90;;;;;;5042242;28;20528;-74
2022/09/13 00:56:30;;;;;;;15.13;9.70;;;14.30;99.90;;;;;;5040098;28;20482;-74
2022/09/13 00:59:01;;;;;;;11.40;8.80;;;14.20;99.90;;;;;;5042242;28;20454;-74
2022/09/13 01:01:32;;;;;;;11.97;8.63;;;14.20;99.90;;;;;;5036783;28;20454;-74
2022/09/13 01:04:00;;;;;;;12.87;9.50;;;14.20;99.90;;;;;;5042687;28;20519;-74
2022/09/13 01:06:31;;;;;;;16.17;9.90;;;14.10;99.90;;;;;;5038839;28;20429;-76
2022/09/13 01:09:03;;;;;;;16.27;9.23;;;14.10;99.90;;;;;;5045087;28;20802;-74
2022/09/13 01:11:33;;;;;;;15.77;9.27;;;14.10;99.90;;;;;;5044731;28;20950;-74
2022/09/13 01:14:03;;;;;;;12.57;8.20;;;14.00;99.90;;;;;;5040402;28;20470;-74
2022/09/13 01:16:29;;;;;;;13.70;8.50;;;14.00;99.90;;;;;;5038214;28;20540;-74
2022/09/13 01:18:56;;;;;;;11.13;9.00;;;14.00;99.90;;;;;;5041521;28;20955;-74
2022/09/13 01:22:11;;;;;;;11.23;8.90;;;13.90;99.90;;;;;;5039700;28;20485;-74
2022/09/13 01:25:06;;;;;;;16.40;9.60;;;13.90;99.90;;;;;;4989110;28;20468;-74
2022/09/13 01:27:44;;;;;;;17.83;9.57;;;13.90;99.90;;;;;;5040014;28;20492;-74
2022/09/13 01:30:17;;;;;;;14.10;10.07;;;13.90;99.90;;;;;;5041136;28;20449;-74
2022/09/13 01:33:03;;;;;;;14.57;10.07;;;13.90;99.90;;;;;;5044296;28;20557;-74
2022/09/13 01:35:42;;;;;;;13.17;9.97;;;13.90;99.90;;;;;;5039621;28;20454;-74
2022/09/13 01:38:24;;;;;;;17.00;10.60;;;14.00;99.90;;;;;;5041008;28;20450;-74
2022/09/13 01:41:01;;;;;;;13.90;9.90;;;13.90;99.90;;;;;;5045718;28;20508;-74
2022/09/13 01:43:40;;;;;;;11.63;8.80;;;13.90;99.90;;;;;;5040859;28;20496;-76
2022/09/13 01:46:12;;;;;;;12.50;9.60;;;13.90;99.90;;;;;;5039467;28;21016;-76
2022/09/13 01:48:54;;;;;;;11.93;9.30;;;13.80;99.90;;;;;;5044188;28;20460;-76
2022/09/13 01:51:28;;;;;;;13.20;9.97;;;13.80;99.90;;;;;;5035908;28;20520;-76
2022/09/13 01:54:06;;;;;;;14.03;9.80;;;13.80;99.90;;;;;;5036700;28;20893;-76
2022/09/13 01:56:39;;;;;;;12.30;9.73;;;13.80;99.90;;;;;;5040740;28;20559;-76
2022/09/13 01:59:14;;;;;;;17.40;9.00;;;13.80;99.90;;;;;;5044347;28;20447;-76
2022/09/13 02:01:47;;;;;;;11.93;9.37;;;13.70;99.90;;;;;;5037283;28;20454;-76
2022/09/13 02:04:18;;;;;;;13.90;10.17;;;13.70;99.90;;;;;;5041105;28;20484;-76
2022/09/13 02:06:49;;;;;;;19.37;9.13;;;13.70;99.90;;;;;;5043273;28;20495;-76
2022/09/13 02:09:20;;;;;;;12.87;9.40;;;13.60;99.90;;;;;;5039062;28;20741;-76
2022/09/13 02:11:51;;;;;;;14.63;10.10;;;13.60;99.90;;;;;;5039790;28;20428;-76
2022/09/13 02:14:21;;;;;;;11.37;8.97;;;13.60;99.90;;;;;;5040318;28;20542;-76
2022/09/13 02:16:52;;;;;;;17.43;10.13;;;13.50;99.90;;;;;;5043108;28;20477;-76
2022/09/13 02:19:25;;;;;;;13.43;9.23;;;13.50;99.90;;;;;;5045891;28;20458;-76
2022/09/13 02:21:58;;;;;;;13.70;9.90;;;13.50;99.90;;;;;;5037358;28;20454;-76
2022/09/13 02:24:29;;;;;;;12.80;8.17;;;13.60;99.90;;;;;;5032245;28;20467;-75
2022/09/13 02:26:58;;;;;;;13.60;8.97;;;13.60;99.90;;;;;;5040464;28;20504;-75
2022/09/13 02:29:27;;;;;;;15.17;9.40;;;13.60;99.90;;;;;;5044978;28;20450;-75
2022/09/13 02:31:59;;;;;;;11.13;7.93;;;13.60;99.90;;;;;;5036654;28;20457;-74
2022/09/13 02:34:31;;;;;;;13.00;8.83;;;13.60;99.90;;;;;;5042374;28;20465;-74
2022/09/13 02:36:59;;;;;;;12.53;9.67;;;13.60;99.90;;;;;;5040535;28;20504;-75
2022/09/13 02:39:29;;;;;;;11.60;9.10;;;13.60;99.90;;;;;;5043577;28;20511;-75
2022/09/13 02:41:59;;;;;;;13.67;10.03;;;13.60;99.90;;;;;;5041040;28;20507;-75
2022/09/13 02:44:32;;;;;;;11.80;9.03;;;13.60;99.90;;;;;;5039422;28;20521;-75
2022/09/13 02:47:10;;;;;;;13.23;9.03;;;13.60;99.90;;;;;;5040709;28;20507;-75
2022/09/13 02:49:48;;;;;;;12.57;8.50;;;13.70;99.90;;;;;;5036221;28;20889;-75
2022/09/13 02:52:22;;;;;;;10.60;8.83;;;13.70;99.90;;;;;;5040578;28;20462;-75
2022/09/13 02:54:56;;;;;;;17.23;9.80;;;13.60;99.90;;;;;;5040643;28;20518;-75
2022/09/13 02:57:30;;;;;;;11.73;9.40;;;13.60;99.90;;;;;;5039139;28;20558;-74
2022/09/13 02:59:56;;;;;;;11.40;9.63;;;13.70;99.90;;;;;;5040993;28;20450;-75
2022/09/13 03:02:29;;;;;;;13.60;9.40;;;13.70;99.90;;;;;;5041815;28;20453;-75
2022/09/13 03:04:56;;;;;;;12.60;9.50;;;13.70;99.90;;;;;;5040893;28;20499;-75
2022/09/13 03:07:22;;;;;;;12.43;9.47;;;13.70;99.90;;;;;;5039225;28;20475;-75
2022/09/13 03:09:54;;;;;;;12.73;9.60;;;13.70;99.90;;;;;;5043613;28;20449;-75
2022/09/13 03:12:39;;;;;;;12.77;9.03;;;13.80;99.90;;;;;;5043620;28;20458;-75
2022/09/13 03:15:18;;;;;;;12.20;9.47;;;13.80;99.90;;;;;;5042393;28;20949;-75
2022/09/13 03:17:57;;;;;;;14.90;10.27;;;13.70;99.90;;;;;;5041110;28;21078;-75
2022/09/13 03:20:35;;;;;;;18.47;10.67;;;13.70;99.90;;;;;;5040374;28;21006;-75
2022/09/13 03:23:17;;;;;;;14.10;10.07;;;13.70;99.90;;;;;;5040330;28;20528;-75
2022/09/13 03:26:07;;;;;;;11.83;9.57;;;13.70;99.90;;;;;;5037345;28;20451;-75
2022/09/13 03:28:42;;;;;;;12.47;9.40;;;13.70;99.90;;;;;;5031387;28;20953;-75
2022/09/13 03:31:13;;;;;;;13.83;10.40;;;13.60;99.90;;;;;;5032659;28;20458;-75
2022/09/13 03:33:47;;;;;;;14.17;9.63;;;13.60;99.90;;;;;;5031181;28;20466;-75
2022/09/13 03:36:19;;;;;;;18.37;10.30;;;13.60;99.90;;;;;;5042534;28;20546;-74
2022/09/13 03:38:56;;;;;;;13.57;9.70;;;13.60;99.90;;;;;;5053001;28;20453;-75
2022/09/13 03:41:27;;;;;;;14.20;9.50;;;13.60;99.90;;;;;;5037409;28;20957;-74
2022/09/13 03:43:57;;;;;;;20.30;9.70;;;13.60;99.90;;;;;;5042850;28;20528;-75
2022/09/13 03:46:29;;;;;;;16.87;9.87;;;13.60;99.90;;;;;;5034922;28;20874;-75
2022/09/13 03:49:01;;;;;;;17.27;10.33;;;13.60;99.90;;;;;;5036414;28;20488;-75
2022/09/13 03:51:28;;;;;;;12.20;9.43;;;13.60;99.90;;;;;;5048756;28;20462;-75
2022/09/13 03:53:59;;;;;;;18.40;10.37;;;13.60;99.90;;;;;;5045140;28;20477;-75
2022/09/13 03:56:26;;;;;;;20.00;10.57;;;13.60;99.90;;;;;;5039561;28;21096;-75
2022/09/13 03:58:52;;;;;;;17.13;9.70;;;13.50;99.90;;;;;;5036157;28;20454;-74
2022/09/13 04:01:22;;;;;;;19.10;10.77;;;13.50;99.90;;;;;;5039954;28;20500;-75
2022/09/13 04:03:49;;;;;;;15.10;9.97;;;13.50;99.90;;;;;;5046233;28;20870;-75
2022/09/13 04:06:17;;;;;;;14.07;9.67;;;13.50;99.90;;;;;;5048435;28;20457;-75
2022/09/13 04:08:44;;;;;;;12.90;10.00;;;13.50;99.90;;;;;;5036237;28;20880;-75
2022/09/13 04:11:11;;;;;;;11.97;9.13;;;13.50;99.90;;;;;;5036882;28;20503;-75
2022/09/13 04:13:38;;;;;;;17.57;10.20;;;13.50;99.90;;;;;;5040600;28;21001;-75
2022/09/13 04:16:06;;;;;;;13.90;9.90;;;13.50;99.90;;;;;;5037816;28;20454;-75
2022/09/13 04:18:34;;;;;;;15.77;10.83;;;13.50;99.90;;;;;;5037529;28;20445;-74
2022/09/13 04:21:03;;;;;;;15.67;9.90;;;13.50;99.90;;;;;;5049186;28;20987;-75
2022/09/13 04:23:31;;;;;;;13.67;9.93;;;13.50;99.90;;;;;;5042562;28;20496;-75
2022/09/13 04:26:01;;;;;;;24.90;11.07;;;13.50;99.90;;;;;;5036477;28;20932;-75
2022/09/13 04:28:28;;;;;;;15.43;11.57;;;13.40;99.90;;;;;;5034761;28;20475;-75
2022/09/13 04:30:54;;;;;;;12.43;9.73;;;13.40;99.90;;;;;;5042339;28;20502;-75
2022/09/13 04:33:22;;;;;;;12.20;10.20;;;13.40;99.90;;;;;;5037768;28;20477;-75
2022/09/13 04:35:49;;;;;;;15.80;10.23;;;13.40;99.90;;;;;;5042526;28;20510;-75
2022/09/13 04:38:15;;;;;;;14.90;11.43;;;13.40;99.90;;;;;;5043131;28;20492;-75
2022/09/13 04:40:43;;;;;;;20.20;10.37;;;13.40;99.90;;;;;;5040763;28;20489;-75
2022/09/13 04:43:10;;;;;;;15.53;9.80;;;13.40;99.90;;;;;;5045555;28;21012;-75
2022/09/13 04:45:37;;;;;;;13.20;9.03;;;13.40;99.90;;;;;;5050226;28;20499;-75
2022/09/13 04:48:04;;;;;;;16.50;11.10;;;13.40;99.90;;;;;;5050377;28;20496;-75
2022/09/13 04:50:30;;;;;;;15.90;10.20;;;13.40;99.90;;;;;;5037004;28;20536;-75
2022/09/13 04:52:57;;;;;;;12.93;10.00;;;13.50;99.90;;;;;;5040064;28;20466;-75
2022/09/13 04:55:24;;;;;;;15.10;10.50;;;13.50;99.90;;;;;;5044724;28;20453;-75
2022/09/13 04:57:55;;;;;;;13.40;10.20;;;13.50;99.90;;;;;;5043868;28;20452;-75
2022/09/13 05:00:22;;;;;;;14.33;10.50;;;13.60;99.90;;;;;;5050107;28;20489;-74
2022/09/13 05:02:49;;;;;;;15.27;10.40;;;13.60;99.90;;;;;;5036435;28;20470;-74
2022/09/13 05:05:15;;;;;;;25.90;12.57;;;13.70;99.90;;;;;;5048939;28;20527;-75
2022/09/13 05:07:42;;;;;;;36.73;18.30;;;13.70;99.90;;;;;;5043343;28;21014;-74
2022/09/13 05:10:09;;;;;;;17.07;12.00;;;13.70;99.90;;;;;;5043268;28;20445;-75
2022/09/13 05:12:36;;;;;;;15.03;10.50;;;13.80;99.90;;;;;;5045268;28;20592;-76
2022/09/13 05:15:05;;;;;;;17.50;12.30;;;13.80;99.90;;;;;;5040382;28;20523;-76
2022/09/13 05:17:32;;;;;;;31.23;15.90;;;13.80;99.90;;;;;;5044934;28;20487;-76
2022/09/13 05:19:59;;;;;;;15.73;11.27;;;13.80;99.90;;;;;;5038493;28;20516;-76
2022/09/13 05:22:25;;;;;;;15.80;11.60;;;13.90;99.90;;;;;;5036718;28;20461;-76
2022/09/13 05:24:52;;;;;;;16.43;11.30;;;13.90;99.90;;;;;;5050800;28;20476;-76
2022/09/13 05:27:18;;;;;;;17.40;11.47;;;13.90;99.90;;;;;;5037034;28;20457;-76
2022/09/13 05:29:45;;;;;;;62.60;32.43;;;14.00;99.90;;;;;;5033035;28;20881;-76
2022/09/13 05:32:13;;;;;;;49.83;26.70;;;14.00;99.90;;;;;;5033096;28;20447;-76
2022/09/13 05:34:40;;;;;;;36.03;18.70;;;14.10;99.90;;;;;;5033005;28;20909;-76
2022/09/13 05:37:06;;;;;;;36.07;18.80;;;14.10;99.90;;;;;;5032863;28;20532;-76
2022/09/13 05:39:35;;;;;;;31.10;18.30;;;14.10;99.90;;;;;;5033188;28;20462;-76
2022/09/13 05:42:01;;;;;;;23.13;13.73;;;14.10;99.90;;;;;;5041492;28;20831;-76
2022/09/13 05:44:28;;;;;;;19.90;13.00;;;14.10;99.90;;;;;;5035694;28;20478;-76
2022/09/13 05:46:55;;;;;;;18.07;12.20;;;14.10;99.90;;;;;;5041082;28;20457;-76
2022/09/13 05:49:23;;;;;;;18.23;11.57;;;14.00;99.90;;;;;;5052038;28;20461;-75
2022/09/13 05:51:49;;;;;;;17.47;10.70;;;14.00;99.90;;;;;;5051866;28;20446;-76
2022/09/13 05:54:16;;;;;;;16.80;11.27;;;13.90;99.90;;;;;;5052191;28;20480;-75
2022/09/13 05:56:42;;;;;;;19.70;11.40;;;13.90;99.90;;;;;;5045208;28;20458;-75
2022/09/13 05:59:12;;;;;;;21.43;10.80;;;14.00;99.90;;;;;;5035061;28;20946;-75
2022/09/13 06:01:39;;;;;;;22.27;11.23;;;14.00;99.90;;;;;;5046767;28;20448;-75
2022/09/13 06:04:06;;;;;;;18.43;11.40;;;14.00;99.90;;;;;;5051751;28;20466;-75
2022/09/13 06:06:35;;;;;;;28.43;12.53;;;14.00;99.90;;;;;;5043560;28;20954;-76
2022/09/13 06:09:01;;;;;;;16.23;12.10;;;14.00;99.90;;;;;;5051908;28;20449;-76
2022/09/13 06:11:28;;;;;;;18.13;12.00;;;14.00;99.90;;;;;;5035645;28;20449;-76
2022/09/13 06:13:54;;;;;;;19.03;13.27;;;14.00;99.90;;;;;;5041702;28;21005;-76
2022/09/13 06:16:21;;;;;;;19.40;12.20;;;14.10;99.90;;;;;;5032155;28;20454;-76
2022/09/13 06:18:48;;;;;;;19.13;12.10;;;14.10;99.90;;;;;;5032422;28;20486;-76
2022/09/13 06:21:17;;;;;;;21.17;11.87;;;14.10;99.90;;;;;;5032327;28;20454;-76
2022/09/13 06:23:45;;;;;;;21.20;12.00;;;14.10;99.90;;;;;;5032076;28;20477;-76
2022/09/13 06:26:14;;;;;;;19.63;11.93;;;14.10;99.90;;;;;;5037844;28;20874;-76
2022/09/13 06:28:41;;;;;;;20.90;11.83;;;14.10;99.90;;;;;;5051238;28;20458;-75
2022/09/13 06:31:10;;;;;;;20.10;11.73;;;14.20;99.90;;;;;;5047578;28;20450;-76
2022/09/13 06:33:39;;;;;;;20.73;12.50;;;14.20;99.90;;;;;;5032040;28;20474;-76
2022/09/13 06:36:08;;;;;;;18.07;10.87;;;14.30;99.90;;;;;;5048645;28;20496;-76
2022/09/13 06:38:35;;;;;;;18.13;11.17;;;14.30;99.90;;;;;;5043786;28;20478;-76
2022/09/13 06:41:04;;;;;;;19.10;12.00;;;14.40;99.90;;;;;;5035693;28;20446;-76
2022/09/13 06:43:31;;;;;;;48.87;22.00;;;14.50;99.90;;;;;;5035967;28;20934;-76
2022/09/13 06:46:01;;;;;;;21.67;13.80;;;14.50;99.90;;;;;;5037841;28;20953;-76
2022/09/13 06:48:31;;;;;;;22.80;14.03;;;14.60;99.90;;;;;;5032036;28;20450;-75
2022/09/13 06:50:59;;;;;;;25.33;12.57;;;14.60;99.90;;;;;;5031657;28;20484;-77
2022/09/13 06:53:27;;;;;;;18.17;12.20;;;14.70;99.90;;;;;;5035541;28;20474;-77
2022/09/13 06:56:03;;;;;;;17.80;12.97;;;14.80;99.90;;;;;;5043171;28;20453;-77
2022/09/13 06:58:31;;;;;;;20.43;13.40;;;14.80;99.90;;;;;;5030502;28;20535;-77
2022/09/13 07:01:10;;;;;;;24.33;12.43;;;14.90;99.90;;;;;;5048526;28;20941;-76
2022/09/13 07:03:37;;;;;;;17.70;11.97;;;14.90;99.90;;;;;;5049750;28;20481;-76
2022/09/13 07:06:11;;;;;;;22.53;12.30;;;14.90;99.90;;;;;;5038135;28;20457;-75
2022/09/13 07:08:39;;;;;;;20.93;12.10;;;15.00;99.90;;;;;;5031024;28;20820;-76
2022/09/13 07:11:08;;;;;;;25.03;15.30;;;15.00;99.90;;;;;;5030595;28;21015;-76
2022/09/13 07:13:35;;;;;;;26.40;14.50;;;15.00;99.90;;;;;;5045819;28;20492;-77
2022/09/13 07:16:02;;;;;;;21.67;13.30;;;15.10;99.90;;;;;;5049133;28;20460;-76
2022/09/13 07:18:29;;;;;;;16.47;11.60;;;15.10;99.90;;;;;;5050181;28;20567;-78
2022/09/13 07:21:00;;;;;;;21.23;12.17;;;15.10;99.90;;;;;;5031786;28;21001;-77
2022/09/13 07:23:27;;;;;;;18.87;12.97;;;15.20;99.90;;;;;;5045430;28;20497;-77
2022/09/13 07:25:55;;;;;;;21.30;12.80;;;15.20;99.90;;;;;;5044875;28;20455;-77
2022/09/13 07:28:22;;;;;;;17.17;13.03;;;15.20;99.90;;;;;;5030909;28;20802;-77
2022/09/13 07:30:49;;;;;;;17.80;11.20;;;15.10;99.90;;;;;;5035761;28;20473;-77
2022/09/13 07:33:16;;;;;;;24.73;11.97;;;15.10;99.90;;;;;;5048718;28;20470;-77
2022/09/13 07:35:42;;;;;;;17.10;13.23;;;15.10;99.90;;;;;;5050452;28;20453;-77
2022/09/13 07:38:09;;;;;;;22.63;13.17;;;15.10;99.90;;;;;;5039200;28;20477;-77
2022/09/13 07:40:36;;;;;;;19.23;13.77;;;15.00;99.90;;;;;;5050371;28;20491;-77
2022/09/13 07:43:02;;;;;;;23.03;14.00;;;15.10;99.90;;;;;;5043842;28;20478;-76
2022/09/13 07:45:30;;;;;;;19.27;12.60;;;15.10;99.90;;;;;;5031643;28;20458;-76
2022/09/13 07:47:57;;;;;;;21.70;14.67;;;15.00;99.90;;;;;;5031313;28;20577;-77
2022/09/13 07:50:23;;;;;;;17.00;13.70;;;15.00;99.90;;;;;;5040412;28;20945;-77
2022/09/13 07:52:50;;;;;;;18.00;13.47;;;14.90;99.90;;;;;;5047245;28;20470;-77
2022/09/13 07:55:17;;;;;;;21.20;14.50;;;14.90;99.90;;;;;;5042237;28;20524;-77
2022/09/13 07:57:43;;;;;;;32.53;16.83;;;15.00;99.90;;;;;;5036270;28;20497;-77
2022/09/13 08:00:11;;;;;;;21.20;14.70;;;15.00;99.90;;;;;;5039180;28;20457;-75
2022/09/13 08:02:39;;;;;;;23.77;14.87;;;15.00;99.90;;;;;;5045155;28;20527;-76
2022/09/13 08:05:06;;;;;;;34.60;16.17;;;15.10;99.90;;;;;;5043856;28;20451;-77
2022/09/13 08:07:33;;;;;;;26.37;14.63;;;15.20;99.90;;;;;;5040508;28;20515;-77
2022/09/13 08:10:00;;;;;;;20.20;14.70;;;15.30;99.90;;;;;;5041200;28;20481;-76
2022/09/13 08:12:26;;;;;;;25.07;15.40;;;15.40;99.90;;;;;;5041861;28;20470;-75
2022/09/13 08:14:53;;;;;;;28.53;15.00;;;15.40;99.90;;;;;;5040681;28;20457;-75
2022/09/13 08:17:19;;;;;;;18.13;14.17;;;15.50;99.90;;;;;;5042776;28;21026;-76
2022/09/13 08:19:47;;;;;;;21.60;15.00;;;15.60;99.90;;;;;;5042430;28;20453;-76
2022/09/13 08:22:14;;;;;;;21.67;15.80;;;15.60;99.90;;;;;;5043219;28;20841;-75
2022/09/13 08:24:41;;;;;;;23.23;14.90;;;15.80;99.90;;;;;;5043335;28;20482;-76
2022/09/13 08:27:07;;;;;;;22.27;13.60;;;16.00;99.90;;;;;;5045218;28;21265;-76
2022/09/13 08:29:34;;;;;;;22.93;14.57;;;16.20;99.90;;;;;;5044029;28;20443;-76
2022/09/13 08:32:00;;;;;;;20.63;15.23;;;16.20;99.90;;;;;;5048281;28;20550;-76
2022/09/13 08:34:27;;;;;;;19.33;14.40;;;16.30;99.90;;;;;;5047325;28;20522;-76
2022/09/13 08:36:55;;;;;;;21.77;14.67;;;16.40;99.90;;;;;;5046431;28;20458;-76
2022/09/13 08:39:22;;;;;;;22.90;14.23;;;16.50;99.90;;;;;;5047290;28;20480;-75
2022/09/13 08:42:03;;;;;;;21.87;15.73;;;16.50;99.90;;;;;;5046102;28;20424;-76
2022/09/13 08:44:33;;;;;;;19.17;13.77;;;16.70;99.90;;;;;;5048097;28;20473;-76
2022/09/13 08:47:11;;;;;;;21.47;14.53;;;16.70;99.90;;;;;;5045423;28;20449;-76
2022/09/13 08:49:43;;;;;;;19.87;14.17;;;16.80;99.90;;;;;;5046922;28;20473;-76
2022/09/13 08:52:24;;;;;;;21.73;14.83;;;16.90;99.90;;;;;;5048571;28;20431;-76
2022/09/13 08:54:52;;;;;;;20.83;14.60;;;17.00;99.90;;;;;;5046316;28;21023;-76
2022/09/13 08:57:26;;;;;;;18.53;13.87;;;17.20;99.90;;;;;;5047550;28;20457;-75
2022/09/13 09:00:02;;;;;;;19.73;15.20;;;17.40;99.90;;;;;;5048470;28;21682;-76
2022/09/13 09:02:46;;;;;;;20.50;13.97;;;17.70;99.90;;;;;;5046837;28;20519;-76
2022/09/13 09:05:16;;;;;;;21.33;14.37;;;18.00;99.90;;;;;;5045695;28;20954;-76
2022/09/13 09:07:47;;;;;;;20.40;14.00;;;18.20;99.90;;;;;;5046195;28;20441;-76
2022/09/13 09:10:17;;;;;;;27.07;13.40;;;18.20;99.90;;;;;;5047116;28;20524;-76
2022/09/13 09:12:48;;;;;;;20.37;14.20;;;18.30;99.90;;;;;;5046121;28;21202;-76
2022/09/13 09:15:19;;;;;;;20.80;14.13;;;18.40;99.90;;;;;;5045088;28;20509;-76
2022/09/13 09:17:55;;;;;;;21.83;13.77;;;18.50;99.90;;;;;;5048499;28;20505;-76
2022/09/13 09:20:26;;;;;;;19.20;14.20;;;18.70;99.90;;;;;;5047725;28;20463;-76
2022/09/13 09:22:55;;;;;;;26.47;13.80;;;18.80;99.90;;;;;;5046815;28;20521;-76
2022/09/13 09:25:25;;;;;;;21.70;14.60;;;19.00;99.90;;;;;;5047614;28;20453;-77
2022/09/13 09:27:53;;;;;;;21.00;15.10;;;18.80;99.90;;;;;;5046577;28;20432;-77
2022/09/13 09:30:20;;;;;;;20.80;14.70;;;18.70;99.90;;;;;;5047919;28;20528;-77
2022/09/13 09:33:02;;;;;;;22.87;15.33;;;18.80;99.90;;;;;;5047300;28;20448;-77
2022/09/13 09:35:45;;;;;;;18.13;13.50;;;18.90;99.90;;;;;;5043709;28;20753;-76
2022/09/13 09:38:30;;;;;;;22.70;14.00;;;18.90;99.90;;;;;;5046593;28;20473;-76
2022/09/13 09:40:58;;;;;;;17.93;12.90;;;18.80;99.90;;;;;;5046654;28;20467;-77
2022/09/13 09:43:29;;;;;;;19.90;14.13;;;18.80;99.90;;;;;;5045414;28;21533;-77
2022/09/13 09:45:58;;;;;;;18.00;14.20;;;18.80;99.90;;;;;;5044718;28;20512;-77
2022/09/13 09:48:30;;;;;;;21.37;14.77;;;18.90;99.90;;;;;;5047157;28;20424;-77
2022/09/13 09:50:59;;;;;;;18.97;13.77;;;19.10;99.90;;;;;;5047228;28;20427;-77
2022/09/13 09:53:30;;;;;;;19.87;14.43;;;19.50;99.90;;;;;;5046517;28;20450;-76
2022/09/13 09:56:02;;;;;;;21.80;13.50;;;19.80;99.90;;;;;;5045517;28;20460;-76
2022/09/13 09:58:40;;;;;;;22.53;14.37;;;20.10;99.90;;;;;;5046286;28;20535;-77
2022/09/13 10:01:17;;;;;;;19.90;14.77;;;20.30;99.90;;;;;;5046256;28;20960;-77
2022/09/13 10:03:50;;;;;;;28.27;14.73;;;20.40;99.90;;;;;;5046722;28;20478;-77
2022/09/13 10:06:21;;;;;;;21.37;14.47;;;20.30;99.90;;;;;;5047554;28;20449;-75
2022/09/13 10:08:58;;;;;;;22.77;15.27;;;20.20;99.90;;;;;;5046639;28;20552;-77
2022/09/13 10:11:37;;;;;;;22.87;14.57;;;20.20;99.90;;;;;;5047112;28;20524;-77
2022/09/13 10:14:04;;;;;;;23.90;14.00;;;20.10;99.90;;;;;;5046404;28;20477;-78
2022/09/13 10:16:31;;;;;;;19.57;13.70;;;20.20;99.90;;;;;;5046629;28;21670;-77
2022/09/13 10:19:22;;;;;;;17.70;13.73;;;20.40;99.90;;;;;;5046832;28;20547;-75
2022/09/13 10:22:00;;;;;;;19.40;14.77;;;20.70;99.90;;;;;;5046934;28;21042;-77
2022/09/13 10:24:29;;;;;;;20.90;15.00;;;20.90;99.90;;;;;;5043671;28;21285;-78
2022/09/13 10:26:56;;;;;;;21.87;13.40;;;21.10;99.90;;;;;;5043938;28;20905;-77
2022/09/13 10:29:25;;;;;;;18.80;13.23;;;21.30;99.90;;;;;;5044780;28;20437;-77
2022/09/13 10:31:54;;;;;;;18.10;13.90;;;21.50;99.90;;;;;;5042872;28;20450;-78
2022/09/13 10:34:23;;;;;;;18.07;14.30;;;21.80;99.90;;;;;;5042753;28;20865;-76
2022/09/13 10:36:55;;;;;;;23.17;15.03;;;22.10;99.90;;;;;;5044191;28;20511;-77
2022/09/13 10:39:24;;;;;;;19.10;13.80;;;22.40;99.90;;;;;;5046196;28;20481;-76
2022/09/13 10:41:56;;;;;;;18.57;13.90;;;22.50;99.90;;;;;;5046161;28;20476;-77
2022/09/13 10:44:31;;;;;;;18.00;13.47;;;22.60;99.90;;;;;;5045826;28;20556;-77
2022/09/13 10:47:01;;;;;;;19.10;13.33;;;22.60;99.90;;;;;;5043895;28;20603;-77
2022/09/13 10:49:40;;;;;;;15.97;12.70;;;22.80;99.90;;;;;;5046357;28;20517;-77
2022/09/13 10:52:32;;;;;;;19.33;12.60;;;23.20;99.90;;;;;;5045391;28;20449;-77
2022/09/13 10:55:29;;;;;;;15.27;11.90;;;23.70;99.90;;;;;;5043731;28;20445;-78
2022/09/13 10:58:13;;;;;;;15.70;11.63;;;24.20;99.90;;;;;;5043852;28;20507;-76
2022/09/13 11:01:06;;;;;;;24.00;12.57;;;24.50;99.90;;;;;;5045382;28;20469;-78
2022/09/13 11:03:45;;;;;;;15.50;12.07;;;24.40;99.90;;;;;;5046627;28;20469;-77
2022/09/13 11:06:19;;;;;;;13.43;10.83;;;24.50;99.90;;;;;;5043616;28;20454;-77
2022/09/13 11:08:51;;;;;;;14.87;11.80;;;24.50;99.90;;;;;;5043395;28;20466;-77
2022/09/13 11:11:24;;;;;;;17.83;11.33;;;24.40;99.90;;;;;;5044397;28;20523;-78
2022/09/13 11:14:13;;;;;;;14.07;9.97;;;24.60;99.90;;;;;;5044897;28;20546;-77
2022/09/13 11:16:51;;;;;;;13.90;10.73;;;24.80;99.90;;;;;;5045194;28;20453;-76
2022/09/13 11:20:04;;;;;;;14.27;10.60;;;24.90;99.90;;;;;;5045858;28;20510;-77
2022/09/13 11:22:59;;;;;;;14.43;9.50;;;24.70;99.90;;;;;;5041333;28;20540;-75
2022/09/13 11:25:37;;;;;;;12.10;9.47;;;24.70;99.90;;;;;;5045253;28;20511;-77
2022/09/13 11:28:10;;;;;;;14.07;9.67;;;24.80;99.90;;;;;;5043886;28;20483;-77
2022/09/13 11:31:00;;;;;;;12.87;8.87;;;24.80;99.90;;;;;;5044464;28;20453;-77
2022/09/13 11:33:38;;;;;;;9.70;7.97;;;24.70;99.90;;;;;;5045299;28;20469;-77
2022/09/13 11:36:24;;;;;;;13.00;11.70;;;24.50;99.90;;;;;;5043362;28;20458;-77
2022/09/13 11:39:02;;;;;;;11.13;8.40;;;24.50;99.90;;;;;;5044539;28;20507;-77
2022/09/13 11:41:39;;;;;;;15.33;9.30;;;24.30;99.90;;;;;;5043885;28;20459;-77
2022/09/13 11:44:32;;;;;;;13.73;7.53;;;24.10;99.90;;;;;;5044653;28;20488;-77
2022/09/13 11:47:10;;;;;;;13.33;9.40;;;24.10;99.90;;;;;;5042452;28;20522;-76
2022/09/13 11:50:00;;;;;;;12.00;8.40;;;23.90;99.90;;;;;;5043765;28;20449;-77
2022/09/13 11:52:40;;;;;;;18.53;7.80;;;23.70;99.90;;;;;;5043542;28;20446;-76
2022/09/13 11:55:17;;;;;;;13.43;8.80;;;23.50;99.90;;;;;;5043049;28;20560;-76
2022/09/13 11:57:48;;;;;;;15.07;8.70;;;23.60;99.90;;;;;;5043736;28;20457;-77
2022/09/13 12:00:21;;;;;;;27.33;8.83;;;23.80;99.90;;;;;;5042800;28;20505;-77
2022/09/13 12:02:58;;;;;;;11.97;8.80;;;23.70;99.90;;;;;;5047645;28;20495;-78
2022/09/13 12:05:28;;;;;;;10.80;8.80;;;23.60;99.90;;;;;;5048015;28;20464;-77
2022/09/13 12:07:58;;;;;;;8.97;7.33;;;23.50;99.90;;;;;;5047773;28;20518;-77
2022/09/13 12:10:28;;;;;;;11.90;7.83;;;23.50;99.90;;;;;;5047927;28;20527;-78
2022/09/13 12:12:59;;;;;;;8.70;7.80;;;23.60;99.90;;;;;;5047584;28;21071;-78
2022/09/13 12:15:34;;;;;;;8.80;7.90;;;23.60;99.90;;;;;;5047592;28;21007;-76
2022/09/13 12:18:09;;;;;;;12.90;8.10;;;23.80;99.90;;;;;;5046581;28;20457;-75
2022/09/13 12:20:38;;;;;;;15.00;7.93;;;24.10;99.90;;;;;;5049034;28;20533;-76
2022/09/13 12:23:11;;;;;;;16.73;7.43;;;24.30;99.90;;;;;;5047839;28;20498;-76
2022/09/13 12:25:45;;;;;;;13.37;7.60;;;24.20;99.90;;;;;;5048157;28;20876;-77
2022/09/13 12:28:18;;;;;;;8.30;7.00;;;24.30;99.90;;;;;;5049095;28;20868;-76
2022/09/13 12:30:51;;;;;;;8.63;7.53;;;24.60;99.90;;;;;;5047988;28;20460;-76
2022/09/13 12:33:19;;;;;;;30.70;19.20;;;25.00;99.90;;;;;;5048824;28;20540;-76
2022/09/13 12:35:57;;;;;;;15.67;9.67;;;25.10;99.90;;;;;;5048330;28;20521;-77
2022/09/13 12:38:57;;;;;;;9.50;6.57;;;25.50;99.90;;;;;;5048034;28;20461;-77
2022/09/13 12:41:35;;;;;;;18.33;6.63;;;26.10;99.90;;;;;;5030763;28;20456;-76
2022/09/13 12:44:26;;;;;;;8.00;6.00;;;26.40;99.90;;;;;;5047763;28;20469;-76
2022/09/13 12:47:47;;;;;;;5.93;5.40;;;26.50;99.90;;;;;;5046459;28;20508;-76
2022/09/13 12:50:39;;;;;;;12.33;5.17;;;26.40;99.90;;;;;;4997863;28;20509;-76
2022/09/13 12:53:18;;;;;;;6.53;5.13;;;26.50;99.90;;;;;;4997750;28;20468;-76
2022/09/13 12:56:03;;;;;;;7.50;4.90;;;26.50;99.90;;;;;;5038761;28;20453;-76